ADDS METAR Data INFO
IDs: Format: Raw Decoded Include TAF

Data at: 2252 UTC 22 Jun 2018

KIZG 222154Z AUTO 15005KT 10SM CLR 23/14 A3000 RMK AO2 SLP161 T02330139
KIZG 222054Z AUTO 12006KT 10SM CLR 24/10 A3001 RMK AO2 SLP163 T02440100 56009
KIZG 221954Z AUTO VRB03KT 10SM CLR 26/08 A3002 RMK AO2 SLP165 T02560078
KIZG 221854Z AUTO VRB06KT 10SM CLR 26/08 A3003 RMK AO2 SLP168 T02560083
KIZG 221754Z AUTO VRB03KT 10SM CLR 24/07 A3004 RMK AO2 SLP172 T02440072 10250 20144 58014
KIZG 221654Z AUTO VRB06KT 10SM CLR 24/08 A3006 RMK AO2 SLP180 T02390078
KIZG 221554Z AUTO VRB03KT 10SM CLR 22/07 A3008 RMK AO2 SLP185 T02220072 $
KIZG 221454Z AUTO 11008KT 10SM CLR 21/08 A3008 RMK AO2 SLP186 T02110078 58003 $
KIZG 221354Z AUTO 10SM CLR 20/07 A3009 RMK AO2 SLP191 T02000072 $
KIZG 221254Z AUTO 00000KT 10SM CLR 18/07 A3010 RMK AO2 SLP193 T01780072
KIZG 221154Z AUTO 00000KT 10SM CLR 15/08 A3009 RMK AO2 SLP188 T01500078 10150 20033 51022
KIZG 221054Z AUTO 00000KT 10SM CLR 11/09 A3007 RMK AO2 SLP183 T01110094 $
KIZG 220954Z AUTO 00000KT 3SM BR CLR 06/06 A3005 RMK AO2 SLP175 T00610061 $
KIZG 220943Z AUTO 00000KT 1 1/4SM BR FEW002 04/04 A3004 RMK AO2 T00440044 $
KIZG 220941Z AUTO 00000KT 2SM BR FEW002 04/04 A3004 RMK AO2 T00440044 $
KIZG 220939Z AUTO 00000KT 1SM BR VV002 04/04 A3004 RMK AO2 T00440044 $
KIZG 220901Z AUTO 00000KT 1/4SM FG VV002 04/04 A3003 RMK AO2 T00440044
KIZG 220854Z AUTO 28003KT 1/2SM FG VV002 04/04 A3002 RMK AO2 SLP167 T00440044 53009
KIZG 220851Z AUTO 00000KT 1 1/4SM BR FEW002 04/04 A3002 RMK AO2
KIZG 220829Z AUTO 00000KT 3SM BR FEW002 06/06 A3002 RMK AO2 T00560056
KIZG 220820Z AUTO 00000KT 1 1/2SM BR SCT002 05/05 A3001 RMK AO2 VIS 3/4V5 T00500050
KIZG 220810Z AUTO 00000KT 5SM BR FEW002 05/05 A3001 RMK AO2 T00500050
KIZG 220803Z AUTO 00000KT 2 1/2SM BR FEW002 05/05 A3001 RMK AO2 VIS 3/4V5 T00500050
KIZG 220801Z AUTO 00000KT 1 1/4SM BR SCT002 05/05 A3001 RMK AO2 VIS 1/2V5 T00500050
KIZG 220754Z AUTO 00000KT 3/4SM BR VV002 04/04 A3001 RMK AO2 SLP161 T00440044
KIZG 220750Z AUTO VRB03KT 1SM BR VV002 04/04 A3000 RMK AO2 VIS 1/2V3
KIZG 220743Z AUTO 00000KT 3/4SM BR VV002 05/05 A3000 RMK AO2 VIS 1/2V2 1/2 T00500050
KIZG 220735Z AUTO 00000KT 1SM BR VV002 04/04 A3000 RMK AO2 T00440044
KIZG 220719Z AUTO 28003KT 1 3/4SM BR CLR 05/05 A3000 RMK AO2 VIS 3/4V5 T00500050
KIZG 220654Z AUTO 00000KT 10SM CLR 06/06 A3000 RMK AO2 SLP158 T00610061
KIZG 220554Z AUTO 00000KT 8SM CLR 07/07 A2999 RMK AO2 SLP157 T00670067 10200 20061 51012
KIZG 220454Z AUTO 27003KT 10SM CLR 07/07 A2999 RMK AO2 SLP155 T00670067 402720067
KIZG 220354Z AUTO 33003KT 10SM CLR 08/08 A2997 RMK AO2 SLP150 T00830078
KIZG 220254Z AUTO 00000KT 10SM CLR 10/07 A2996 RMK AO2 SLP145 T01000067 52030
KIZG 220154Z AUTO 32003KT 10SM CLR 13/08 A2993 RMK AO2 SLP134 T01280078
KIZG 220054Z AUTO 33003KT 10SM CLR 18/05 A2990 RMK AO2 SLP122 T01780050
KIZG 212354Z AUTO 34005KT 10SM CLR 20/06 A2987 RMK AO2 SLP112 T02000056 10267 20200 53024
KIZG 212254Z AUTO 02008KT 10SM CLR 23/06 A2984 RMK AO2 SLP104 T02280056
KIZG 212154Z AUTO 01008KT 10SM CLR 24/05 A2982 RMK AO2 SLP096 T02390050
KIZG 212054Z AUTO 04008KT 10SM CLR 25/05 A2980 RMK AO2 SLP088 T02500050 53006 $
KIZG 211954Z AUTO 01011KT 10SM CLR 26/06 A2979 RMK AO2 SLP085 T02610056 $
KIZG 211854Z AUTO 10SM FEW075 24/09 A2978 RMK AO2 SLP082 T02440089 $
KIZG 211754Z AUTO 10SM CLR 27/09 A2978 RMK AO2 SLP082 T02670094 10272 20211 58007 $
KIZG 211654Z AUTO 10SM BKN060 BKN120 23/10 A2979 RMK AO2 SLP085 T02280100 $
KIZG 211554Z AUTO 10SM CLR 24/12 A2979 RMK AO2 SLP087 T02390117 $
KIZG 211454Z AUTO 05004KT 10SM OVC110 22/12 A2980 RMK AO2 SLP089 T02170117 53007
KIZG 211354Z AUTO 04007KT 10SM BKN100 23/13 A2979 RMK AO2 SLP087 T02280133
KIZG 211254Z AUTO 05005KT 10SM SCT090 BKN120 22/14 A2979 RMK AO2 SLP086 T02170144
KIZG 211154Z AUTO VRB04KT 10SM FEW042 SCT110 22/14 A2978 RMK AO2 SLP082 T02170139 10217 20150 51018
KIZG 211054Z AUTO 32004KT 10SM CLR 20/14 A2976 RMK AO2 SLP077 T02000139